createdAt,value
2018-05-19T00:01:25.655Z,6.90
2018-05-19T00:03:53.220Z,8.30
2018-05-19T00:06:20.873Z,6.43
2018-05-19T00:08:48.441Z,6.70
2018-05-19T00:11:16.143Z,7.23
2018-05-19T00:13:43.783Z,6.20
2018-05-19T00:16:11.354Z,6.40
2018-05-19T00:18:38.993Z,7.33
2018-05-19T00:21:06.631Z,6.70
2018-05-19T00:23:34.216Z,6.77
2018-05-19T00:26:01.765Z,6.30
2018-05-19T00:28:29.382Z,5.20
2018-05-19T00:30:57.010Z,6.80
2018-05-19T00:33:24.591Z,6.37
2018-05-19T00:35:52.168Z,6.67
2018-05-19T00:38:19.811Z,6.87
2018-05-19T00:40:47.384Z,6.23
2018-05-19T00:43:14.951Z,5.90
2018-05-19T00:45:42.570Z,6.60
2018-05-19T00:48:10.201Z,7.30
2018-05-19T00:50:37.773Z,5.50
2018-05-19T00:53:05.355Z,6.53
2018-05-19T00:55:32.924Z,6.70
2018-05-19T00:58:00.557Z,5.67
2018-05-19T01:00:28.180Z,6.70
2018-05-19T01:02:55.814Z,6.10
2018-05-19T01:05:23.455Z,7.00
2018-05-19T01:07:51.030Z,7.03
2018-05-19T01:10:18.620Z,6.00
2018-05-19T01:12:46.193Z,6.50
2018-05-19T01:15:13.771Z,5.73
2018-05-19T01:17:41.341Z,5.37
2018-05-19T01:20:08.979Z,5.40
2018-05-19T01:22:36.605Z,5.97
2018-05-19T01:25:04.191Z,6.10
2018-05-19T01:27:31.850Z,5.70
2018-05-19T01:29:59.465Z,5.83
2018-05-19T01:32:27.106Z,5.43
2018-05-19T01:34:54.677Z,5.10
2018-05-19T01:37:22.299Z,7.43
2018-05-19T01:39:49.878Z,6.73
2018-05-19T01:42:17.454Z,6.80
2018-05-19T01:44:45.109Z,8.20
2018-05-19T01:47:12.684Z,5.23
2018-05-19T01:49:40.264Z,6.23
2018-05-19T01:52:07.834Z,5.70
2018-05-19T01:54:35.459Z,6.03
2018-05-19T01:57:03.016Z,5.20
2018-05-19T01:59:30.640Z,6.00
2018-05-19T02:01:58.206Z,5.77
2018-05-19T02:04:25.817Z,5.53
2018-05-19T02:06:53.397Z,5.13
2018-05-19T02:09:20.960Z,5.17
2018-05-19T02:11:48.548Z,5.50
2018-05-19T02:14:16.134Z,4.77
2018-05-19T02:16:43.754Z,4.63
2018-05-19T02:19:11.313Z,4.20
2018-05-19T02:21:38.893Z,4.30
2018-05-19T02:24:06.529Z,4.90
2018-05-19T02:26:34.079Z,4.80
2018-05-19T02:29:01.645Z,5.13
2018-05-19T02:31:29.213Z,5.07
2018-05-19T02:33:56.828Z,4.63
2018-05-19T02:36:24.392Z,4.47
2018-05-19T02:38:52.024Z,3.90
2018-05-19T02:41:19.609Z,4.13
2018-05-19T02:43:47.204Z,3.30
2018-05-19T02:46:14.800Z,3.53
2018-05-19T02:48:42.367Z,3.83
2018-05-19T02:51:09.988Z,4.00
2018-05-19T02:53:37.613Z,4.00
2018-05-19T02:56:05.178Z,4.77
2018-05-19T02:58:32.756Z,4.30
2018-05-19T03:01:00.329Z,4.40
2018-05-19T03:03:27.916Z,4.17
2018-05-19T03:05:55.547Z,4.70
2018-05-19T03:08:23.189Z,3.83
2018-05-19T03:10:50.813Z,4.43
2018-05-19T03:13:18.378Z,4.43
2018-05-19T03:15:45.955Z,4.07
2018-05-19T03:18:13.512Z,4.27
2018-05-19T03:20:41.086Z,5.60
2018-05-19T03:23:08.722Z,4.37
2018-05-19T03:25:36.308Z,3.83
2018-05-19T03:28:03.933Z,4.70
2018-05-19T03:30:31.568Z,4.13
2018-05-19T03:32:59.133Z,4.43
2018-05-19T03:35:26.693Z,4.30
2018-05-19T03:37:54.325Z,4.70
2018-05-19T03:40:21.902Z,4.60
2018-05-19T03:42:49.472Z,5.50
2018-05-19T03:45:17.074Z,5.10
2018-05-19T03:47:44.692Z,5.70
2018-05-19T03:50:12.260Z,5.50
2018-05-19T03:52:39.825Z,5.70
2018-05-19T03:55:07.402Z,5.30
2018-05-19T03:57:46.830Z,5.30
2018-05-19T04:00:26.287Z,6.07
2018-05-19T04:02:53.847Z,5.97
2018-05-19T04:05:21.482Z,5.30
2018-05-19T04:07:49.067Z,6.47
2018-05-19T04:10:16.708Z,5.53
2018-05-19T04:12:44.334Z,5.80
2018-05-19T04:15:11.957Z,4.23
2018-05-19T04:17:39.516Z,5.67
2018-05-19T04:20:07.073Z,12.20
2018-05-19T04:22:34.643Z,8.30
2018-05-19T04:25:02.210Z,5.73
2018-05-19T04:27:29.841Z,6.07
2018-05-19T04:29:57.409Z,5.30
2018-05-19T04:32:25.019Z,6.37
2018-05-19T04:34:52.584Z,5.83
2018-05-19T04:37:20.143Z,4.57
2018-05-19T04:39:47.712Z,5.77
2018-05-19T04:42:15.339Z,5.50
2018-05-19T04:44:42.969Z,5.13
2018-05-19T04:47:10.585Z,4.70
2018-05-19T04:49:38.200Z,4.40
2018-05-19T04:52:05.839Z,5.07
2018-05-19T04:54:33.472Z,4.00
2018-05-19T04:57:01.057Z,4.27
2018-05-19T04:59:28.625Z,4.53
2018-05-19T05:01:56.210Z,4.57
2018-05-19T05:04:23.846Z,4.10
2018-05-19T05:06:51.466Z,4.33
2018-05-19T05:09:19.032Z,4.30
2018-05-19T05:11:46.600Z,3.97
2018-05-19T05:14:14.161Z,4.30
2018-05-19T05:16:41.726Z,4.27
2018-05-19T05:19:09.296Z,4.80
2018-05-19T05:21:36.864Z,4.40
2018-05-19T05:24:04.478Z,4.20
2018-05-19T05:26:32.098Z,5.00
2018-05-19T05:28:59.670Z,4.57
2018-05-19T05:31:27.244Z,4.67
2018-05-19T05:33:54.869Z,4.70
2018-05-19T05:36:22.493Z,4.10
2018-05-19T05:38:50.035Z,4.33
2018-05-19T05:41:17.654Z,4.33
2018-05-19T05:43:45.328Z,4.30
2018-05-19T05:46:12.884Z,4.20
2018-05-19T05:48:40.522Z,3.97
2018-05-19T05:51:08.079Z,4.97
2018-05-19T05:53:35.648Z,4.17
2018-05-19T05:56:03.213Z,4.20
2018-05-19T05:58:30.808Z,3.50
2018-05-19T06:00:58.364Z,4.00
2018-05-19T06:03:25.943Z,4.60
2018-05-19T06:05:53.524Z,4.33
2018-05-19T06:08:21.076Z,3.27
2018-05-19T06:10:48.718Z,2.90
2018-05-19T06:13:16.351Z,2.20
2018-05-19T06:15:43.922Z,2.47
2018-05-19T06:18:11.488Z,3.10
2018-05-19T06:20:39.197Z,2.33
2018-05-19T06:47:12.369Z,2.30
2018-05-19T06:49:39.936Z,2.80
2018-05-19T06:52:07.653Z,2.63
2018-05-19T06:54:35.213Z,2.70
2018-05-19T06:57:02.823Z,2.60
2018-05-19T06:59:30.372Z,2.80
2018-05-19T07:01:57.974Z,2.63
2018-05-19T07:04:25.542Z,2.60
2018-05-19T07:06:53.101Z,2.63
2018-05-19T07:09:20.754Z,2.50
2018-05-19T07:11:48.318Z,2.70
2018-05-19T07:14:15.889Z,2.50
2018-05-19T07:16:43.455Z,2.27
2018-05-19T07:19:11.024Z,2.60
2018-05-19T07:21:38.713Z,2.33
2018-05-19T07:24:06.320Z,2.23
2018-05-19T07:26:33.981Z,2.10
2018-05-19T07:29:01.557Z,2.00
2018-05-19T07:31:29.097Z,2.07
2018-05-19T07:33:56.892Z,2.03
2018-05-19T07:36:24.522Z,2.40
2018-05-19T07:38:52.129Z,2.27
2018-05-19T07:41:19.722Z,1.70
2018-05-19T07:43:47.288Z,1.93
2018-05-19T07:46:14.869Z,4.20
2018-05-19T07:48:42.429Z,2.00
2018-05-19T07:51:10.097Z,2.20
2018-05-19T07:53:37.731Z,2.20
2018-05-19T07:56:05.296Z,1.80
2018-05-19T07:58:32.932Z,2.00
2018-05-19T08:01:00.492Z,2.20
2018-05-19T08:03:28.052Z,1.40
2018-05-19T08:05:55.670Z,2.20
2018-05-19T08:08:23.294Z,1.73
2018-05-19T08:10:50.852Z,1.57
2018-05-19T08:13:18.470Z,2.17
2018-05-19T08:15:46.041Z,1.60
2018-05-19T08:18:13.612Z,1.70
2018-05-19T08:20:41.177Z,1.93
2018-05-19T08:23:08.738Z,1.67
2018-05-19T08:25:36.410Z,1.90
2018-05-19T08:28:04.037Z,1.40
2018-05-19T08:30:31.719Z,2.27
2018-05-19T08:32:59.243Z,1.53
2018-05-19T08:35:26.796Z,1.60
2018-05-19T08:37:54.360Z,1.80
2018-05-19T08:40:21.916Z,1.57
2018-05-19T08:42:49.912Z,2.50
2018-05-19T08:45:17.473Z,1.63
2018-05-19T08:47:45.143Z,2.13
2018-05-19T08:50:12.708Z,2.50
2018-05-19T08:52:40.304Z,2.17
2018-05-19T08:55:07.869Z,2.17
2018-05-19T08:57:35.443Z,1.73
2018-05-19T09:00:03.193Z,1.83
2018-05-19T09:02:30.811Z,1.80
2018-05-19T09:04:58.371Z,2.10
2018-05-19T09:07:25.945Z,2.10
2018-05-19T09:09:53.500Z,1.90
2018-05-19T09:12:21.071Z,2.57
2018-05-19T09:14:48.628Z,2.20
2018-05-19T09:17:16.262Z,2.70
2018-05-19T09:19:43.899Z,2.07
2018-05-19T09:22:11.504Z,2.43
2018-05-19T09:24:39.076Z,2.37
2018-05-19T09:27:06.693Z,2.13
2018-05-19T09:29:34.278Z,2.20
2018-05-19T09:32:01.911Z,2.50
2018-05-19T09:34:29.520Z,2.40
2018-05-19T09:36:57.081Z,2.20
2018-05-19T09:39:24.697Z,2.30
2018-05-19T09:41:52.340Z,2.40
2018-05-19T09:44:19.896Z,2.37
2018-05-19T09:46:47.468Z,2.57
2018-05-19T09:49:15.090Z,2.60
2018-05-19T09:51:42.726Z,2.23
2018-05-19T09:54:10.289Z,2.50
2018-05-19T09:56:37.848Z,2.90
2018-05-19T09:59:05.462Z,2.97
2018-05-19T10:01:33.072Z,3.00
2018-05-19T10:04:00.644Z,2.40
2018-05-19T10:06:28.203Z,2.67
2018-05-19T10:08:55.817Z,2.53
2018-05-19T10:11:23.381Z,2.70
2018-05-19T10:13:50.936Z,2.63
2018-05-19T10:16:18.518Z,2.70
2018-05-19T10:18:46.080Z,2.50
2018-05-19T10:21:13.700Z,2.80
2018-05-19T10:23:41.331Z,2.50
2018-05-19T10:26:08.940Z,3.07
2018-05-19T10:28:36.496Z,2.77
2018-05-19T10:31:04.064Z,3.03
2018-05-19T10:33:31.695Z,2.40
2018-05-19T10:35:59.260Z,2.93
2018-05-19T10:38:26.846Z,2.90
2018-05-19T10:40:54.523Z,3.10
2018-05-19T10:43:22.196Z,2.70
2018-05-19T10:45:49.761Z,2.77
2018-05-19T10:48:17.323Z,2.90
2018-05-19T10:50:44.948Z,3.13
2018-05-19T10:53:12.511Z,3.30
2018-05-19T10:55:40.076Z,3.27
2018-05-19T10:58:07.632Z,3.33
2018-05-19T11:00:35.256Z,3.80
2018-05-19T11:03:02.825Z,5.93
2018-05-19T11:05:30.392Z,6.77
2018-05-19T11:07:57.987Z,6.27
2018-05-19T11:10:25.573Z,6.40
2018-05-19T11:12:53.154Z,8.30
2018-05-19T11:15:20.711Z,7.37
2018-05-19T11:17:48.281Z,7.37
2018-05-19T11:20:15.905Z,6.93
2018-05-19T11:22:43.521Z,7.93
2018-05-19T11:25:11.080Z,7.17
2018-05-19T11:27:38.632Z,6.03
2018-05-19T11:30:06.192Z,5.90
2018-05-19T11:32:33.832Z,7.30
2018-05-19T11:35:01.400Z,5.80
2018-05-19T11:37:28.960Z,6.50
2018-05-19T11:39:56.584Z,6.07
2018-05-19T11:42:24.148Z,6.37
2018-05-19T11:44:51.719Z,6.10
2018-05-19T11:47:19.294Z,5.33
2018-05-19T11:49:46.860Z,5.00
2018-05-19T11:52:14.529Z,4.97
2018-05-19T11:54:42.092Z,4.33
2018-05-19T11:57:09.671Z,4.40
2018-05-19T11:59:37.248Z,5.33
2018-05-19T12:02:04.824Z,4.63
2018-05-19T12:04:32.521Z,5.13
2018-05-19T12:07:00.145Z,4.57
2018-05-19T12:09:27.709Z,4.07
2018-05-19T12:11:55.329Z,4.60
2018-05-19T12:14:22.936Z,3.90
2018-05-19T12:16:50.501Z,3.47
2018-05-19T12:19:18.126Z,3.70
2018-05-19T12:21:45.746Z,3.60
2018-05-19T12:24:13.315Z,2.60
2018-05-19T12:26:40.876Z,3.40
2018-05-19T12:29:08.527Z,3.10
2018-05-19T12:31:36.090Z,3.07
2018-05-19T12:34:03.705Z,3.33
2018-05-19T12:36:31.260Z,3.53
2018-05-19T12:38:58.820Z,3.13
2018-05-19T12:41:26.543Z,3.70
2018-05-19T12:43:54.144Z,3.20
2018-05-19T12:46:21.712Z,3.30
2018-05-19T12:48:49.342Z,2.70
2018-05-19T12:51:16.877Z,3.17
2018-05-19T12:53:44.466Z,2.90
2018-05-19T12:56:12.033Z,3.33
2018-05-19T12:58:39.600Z,3.50
2018-05-19T13:01:07.221Z,3.30
2018-05-19T13:03:34.952Z,3.00
2018-05-19T13:06:02.570Z,3.23
2018-05-19T13:08:30.138Z,3.23
2018-05-19T13:10:57.779Z,2.60
2018-05-19T13:13:25.405Z,3.70
2018-05-19T13:15:52.969Z,3.37
2018-05-19T13:18:20.529Z,3.20
2018-05-19T13:20:48.141Z,3.27
2018-05-19T13:23:15.705Z,2.70
2018-05-19T13:25:43.273Z,2.97
2018-05-19T13:28:10.841Z,2.70
2018-05-19T13:30:38.396Z,2.90
2018-05-19T13:33:05.990Z,2.73
2018-05-19T13:35:33.572Z,3.00
2018-05-19T13:38:01.184Z,3.10
2018-05-19T13:40:28.741Z,2.20
2018-05-19T13:42:56.353Z,3.07
2018-05-19T13:45:23.930Z,2.80
2018-05-19T13:47:51.558Z,2.43
2018-05-19T13:50:19.181Z,3.03
2018-05-19T13:52:46.749Z,2.60
2018-05-19T13:55:14.380Z,2.50
2018-05-19T13:57:42.023Z,2.87
2018-05-19T14:00:09.584Z,2.87
2018-05-19T14:02:37.153Z,2.20
2018-05-19T14:05:04.837Z,2.50
2018-05-19T14:07:32.464Z,2.50
2018-05-19T14:10:00.021Z,2.00
2018-05-19T14:12:27.689Z,3.80
2018-05-19T14:14:55.320Z,5.73
2018-05-19T14:17:22.873Z,2.57
2018-05-19T14:19:50.465Z,2.33
2018-05-19T14:22:18.101Z,2.53
2018-05-19T14:24:45.674Z,2.63
2018-05-19T14:27:13.297Z,3.07
2018-05-19T14:29:40.968Z,2.20
2018-05-19T14:32:08.552Z,2.53
2018-05-19T14:34:36.113Z,2.00
2018-05-19T14:37:03.691Z,2.87
2018-05-19T14:39:31.244Z,3.33
2018-05-19T14:41:58.856Z,2.80
2018-05-19T14:44:26.436Z,2.53
2018-05-19T14:46:53.980Z,2.80
2018-05-19T14:49:21.553Z,2.77
2018-05-19T14:51:49.169Z,2.80
2018-05-19T14:54:16.833Z,3.00
2018-05-19T14:56:44.457Z,2.37
2018-05-19T14:59:12.008Z,2.97
2018-05-19T15:01:39.573Z,2.60
2018-05-19T15:04:07.131Z,5.10
2018-05-19T15:06:34.820Z,2.83
2018-05-19T15:09:02.378Z,2.43
2018-05-19T15:11:29.994Z,2.90
2018-05-19T15:13:57.556Z,2.50
2018-05-19T15:16:25.094Z,2.50
2018-05-19T15:18:52.657Z,2.53
2018-05-19T15:21:20.227Z,2.90
2018-05-19T15:23:47.898Z,2.90
2018-05-19T15:26:15.452Z,2.80
2018-05-19T15:28:43.009Z,3.60
2018-05-19T15:31:10.633Z,3.30
2018-05-19T15:33:38.188Z,3.50
2018-05-19T15:36:05.814Z,3.10
2018-05-19T15:38:33.447Z,3.13
2018-05-19T15:41:01.028Z,3.20
2018-05-19T15:43:28.582Z,3.07
2018-05-19T15:45:56.144Z,3.43
2018-05-19T15:48:23.713Z,3.17
2018-05-19T15:50:51.341Z,2.80
2018-05-19T15:53:18.900Z,3.50
2018-05-19T15:55:46.454Z,3.00
2018-05-19T15:58:14.065Z,3.10
2018-05-19T16:00:41.634Z,2.93
2018-05-19T16:03:09.244Z,3.03
2018-05-19T16:05:36.781Z,3.07
2018-05-19T16:08:04.347Z,3.00
2018-05-19T16:10:31.917Z,2.70
2018-05-19T16:12:59.546Z,2.73
2018-05-19T16:15:27.185Z,2.70
2018-05-19T16:17:54.739Z,2.43
2018-05-19T16:20:22.292Z,2.37
2018-05-19T16:22:49.917Z,2.60
2018-05-19T16:25:17.480Z,2.03
2018-05-19T16:27:45.066Z,2.90
2018-05-19T16:30:12.648Z,2.80
2018-05-19T16:32:40.399Z,2.60
2018-05-19T16:35:07.936Z,3.03
2018-05-19T16:37:35.516Z,2.77
2018-05-19T16:40:03.145Z,3.00
2018-05-19T16:42:30.761Z,4.07
2018-05-19T16:44:58.323Z,4.20
2018-05-19T16:47:25.947Z,3.20
2018-05-19T16:49:53.557Z,2.90
2018-05-19T16:52:21.113Z,2.60
2018-05-19T16:54:48.664Z,2.77
2018-05-19T16:57:16.233Z,2.93
2018-05-19T16:59:43.857Z,3.83
2018-05-19T17:02:11.425Z,4.03
2018-05-19T17:04:38.984Z,3.43
2018-05-19T17:07:06.596Z,3.17
2018-05-19T17:09:34.153Z,4.40
2018-05-19T17:12:01.719Z,4.00
2018-05-19T17:14:29.299Z,4.23
2018-05-19T17:16:56.930Z,3.97
2018-05-19T17:19:24.504Z,7.20
2018-05-19T17:21:52.121Z,6.97
2018-05-19T17:24:19.733Z,6.40
2018-05-19T17:26:47.294Z,6.50
2018-05-19T17:29:14.852Z,6.03
2018-05-19T17:31:42.476Z,6.90
2018-05-19T17:34:10.088Z,4.90
2018-05-19T17:36:37.653Z,4.33
2018-05-19T17:39:06.198Z,5.00
2018-05-19T17:41:33.873Z,4.53
2018-05-19T17:44:01.514Z,4.80
2018-05-19T17:46:29.086Z,5.90
2018-05-19T17:48:56.717Z,5.10
2018-05-19T17:51:24.269Z,5.20
2018-05-19T17:53:51.901Z,4.70
2018-05-19T17:56:19.464Z,4.97
2018-05-19T17:58:47.145Z,5.33
2018-05-19T18:01:14.703Z,6.07
2018-05-19T18:03:42.318Z,5.10
2018-05-19T18:06:09.884Z,5.03
2018-05-19T18:08:37.501Z,5.43
2018-05-19T18:11:05.140Z,4.53
2018-05-19T18:13:32.692Z,5.73
2018-05-19T18:16:00.365Z,5.73
2018-05-19T18:18:27.918Z,4.90
2018-05-19T18:20:55.478Z,5.50
2018-05-19T18:23:23.117Z,5.70
2018-05-19T18:25:50.684Z,5.60
2018-05-19T18:28:18.249Z,5.90
2018-05-19T18:30:45.871Z,6.13
2018-05-19T18:33:13.490Z,5.83
2018-05-19T18:35:41.107Z,5.37
2018-05-19T18:38:08.674Z,4.70
2018-05-19T18:40:36.268Z,6.03
2018-05-19T18:43:03.836Z,4.87
2018-05-19T18:45:31.416Z,5.10
2018-05-19T18:47:59.037Z,4.70
2018-05-19T18:50:26.645Z,5.60
2018-05-19T18:53:00.336Z,5.50
2018-05-19T18:55:27.970Z,6.60
2018-05-19T18:57:56.392Z,5.00
2018-05-19T19:00:23.966Z,5.70
2018-05-19T19:02:51.538Z,5.70
2018-05-19T19:05:19.097Z,6.00
2018-05-19T19:07:46.736Z,6.30
2018-05-19T19:10:14.353Z,6.10
2018-05-19T19:12:41.924Z,6.57
2018-05-19T19:15:09.491Z,7.67
2018-05-19T19:17:37.052Z,5.90
2018-05-19T19:20:04.681Z,5.77
2018-05-19T19:22:32.218Z,6.10
2018-05-19T19:24:59.888Z,6.53
2018-05-19T19:27:27.445Z,7.23
2018-05-19T19:29:55.005Z,6.13
2018-05-19T19:32:22.685Z,7.03
2018-05-19T19:34:50.272Z,7.30
2018-05-19T19:37:17.836Z,6.30
2018-05-19T19:39:45.409Z,6.60
2018-05-19T19:42:13.027Z,7.03
2018-05-19T19:44:40.592Z,6.70
2018-05-19T19:47:08.162Z,6.83
2018-05-19T19:49:35.728Z,7.10
2018-05-19T19:52:03.284Z,7.27
2018-05-19T19:54:30.910Z,7.30
2018-05-19T19:56:58.544Z,6.77
2018-05-19T19:59:26.282Z,6.93
2018-05-19T20:01:53.784Z,7.50
2018-05-19T20:04:21.403Z,7.40
2018-05-19T20:06:48.998Z,7.50
2018-05-19T20:09:16.602Z,8.60
2018-05-19T20:11:44.174Z,8.40
2018-05-19T20:14:11.836Z,8.17
2018-05-19T20:16:39.457Z,8.70
2018-05-19T20:19:07.025Z,7.97
2018-05-19T20:21:34.685Z,8.80
2018-05-19T20:24:02.253Z,7.40
2018-05-19T20:26:29.808Z,8.07
2018-05-19T20:28:57.429Z,8.57
2018-05-19T20:31:24.996Z,9.83
2018-05-19T20:33:52.736Z,8.67
2018-05-19T20:36:20.296Z,8.73
2018-05-19T20:38:47.852Z,9.33
2018-05-19T20:41:15.476Z,8.57
2018-05-19T20:43:43.037Z,8.73
2018-05-19T20:46:10.600Z,9.17
2018-05-19T20:48:38.160Z,8.50
2018-05-19T20:51:05.870Z,9.33
2018-05-19T20:53:33.465Z,8.20
2018-05-19T20:56:01.055Z,9.70
2018-05-19T20:58:28.628Z,8.83
2018-05-19T21:00:56.222Z,8.20
2018-05-19T21:03:23.789Z,8.53
2018-05-19T21:05:51.358Z,8.10
2018-05-19T21:08:18.969Z,9.50
2018-05-19T21:10:46.524Z,9.87
2018-05-19T21:13:14.151Z,9.20
2018-05-19T21:15:41.778Z,9.67
2018-05-19T21:18:09.344Z,10.17
2018-05-19T21:20:36.964Z,10.57
2018-05-19T21:23:04.538Z,9.20
2018-05-19T21:25:32.104Z,9.90
2018-05-19T21:27:59.676Z,9.33
2018-05-19T21:30:27.240Z,9.97
2018-05-19T21:32:54.874Z,9.60
2018-05-19T21:35:22.490Z,9.40
2018-05-19T21:37:50.032Z,9.70
2018-05-19T21:40:17.600Z,9.20
2018-05-19T21:42:45.163Z,9.10
2018-05-19T21:45:12.732Z,10.33
2018-05-19T21:47:40.293Z,9.50
2018-05-19T21:50:08.035Z,10.80
2018-05-19T21:52:35.566Z,10.80
2018-05-19T21:55:03.127Z,11.00
2018-05-19T21:57:30.758Z,9.10
2018-05-19T21:59:58.305Z,11.47
2018-05-19T22:02:26.007Z,10.97
2018-05-19T22:04:53.641Z,11.67
2018-05-19T22:07:21.203Z,11.23
2018-05-19T22:09:48.829Z,10.20
2018-05-19T22:12:16.397Z,11.50
2018-05-19T22:14:43.964Z,10.63
2018-05-19T22:17:11.525Z,10.67
2018-05-19T22:19:39.205Z,10.37
2018-05-19T22:22:06.772Z,11.07
2018-05-19T22:24:34.392Z,11.17
2018-05-19T22:27:01.968Z,11.57
2018-05-19T22:29:29.593Z,11.90
2018-05-19T22:31:57.320Z,11.30
2018-05-19T22:34:24.887Z,12.80
2018-05-19T22:36:52.507Z,13.10
2018-05-19T22:39:20.133Z,12.30
2018-05-19T22:41:47.766Z,12.30
2018-05-19T22:44:15.362Z,11.73
2018-05-19T22:46:42.927Z,11.57
2018-05-19T22:49:10.560Z,11.97
2018-05-19T22:51:38.132Z,11.70
2018-05-19T22:54:05.758Z,12.63
2018-05-19T22:56:33.328Z,13.10
2018-05-19T22:59:00.993Z,13.10
2018-05-19T23:01:28.629Z,14.80
2018-05-19T23:03:56.201Z,12.80
2018-05-19T23:06:23.808Z,12.53
2018-05-19T23:08:51.378Z,13.50
2018-05-19T23:11:18.996Z,15.23
2018-05-19T23:13:46.576Z,12.90
2018-05-19T23:16:14.146Z,15.20
2018-05-19T23:18:41.720Z,16.53
2018-05-19T23:21:09.289Z,12.80
2018-05-19T23:23:36.845Z,14.20
2018-05-19T23:26:04.465Z,15.80
2018-05-19T23:28:32.037Z,14.57
2018-05-19T23:30:59.674Z,12.27
2018-05-19T23:33:27.377Z,12.70
2018-05-19T23:35:54.944Z,13.13
2018-05-19T23:38:22.513Z,13.90
2018-05-19T23:40:50.076Z,15.20
2018-05-19T23:43:17.704Z,15.30
2018-05-19T23:45:45.337Z,15.57
2018-05-19T23:48:12.904Z,15.77
2018-05-19T23:50:40.532Z,15.63
2018-05-19T23:53:08.092Z,14.57
2018-05-19T23:55:35.657Z,16.00
2018-05-19T23:58:03.236Z,15.17
